METAR Data
IDs: Format: Raw Decoded Include TAF

Data at: 1653 UTC 03 Dec 2021

LFOV 031630Z AUTO 25010KT 9999 -RA BKN008 OVC012 12/11 Q1006